Dayton/Wright-Patterson AFB, Ohio
Current Conditions -  °F | °C
As of 12:58 PM on Sunday 21 Dec 2014 (Local Time) from KFFO Reporting Station
Broken Clouds Broken Clouds  
Wind Chill: 29°   Ceiling: 25000
Heat Index: 36°   Visibility: 10mi
Dew Point: 24°   Wind: 9mph
Humidity: 63%   Direction: 120°ESE
Pressure: 30.24"   Gusts: NA
Location:  39.83°N, 84.05°W
Report Text: KFFO 211758Z 12008KT 10SM BKN250 02/M04 A3024 RMK AO2A SLP252 T00221042 10022 21065 57027
Loading
Personal Weather Stations






























Interactive Weather Map New forecast layout! Learn more

10-Day Weather Forecast

Advertisements
Track Severe Weather on mobile